createdAt,value
2023-02-27T00:00:21.585Z,16.58
2023-02-27T00:02:50.986Z,17.85
2023-02-27T00:05:19.325Z,15.57
2023-02-27T00:07:46.396Z,17.65
2023-02-27T00:10:14.240Z,18.73
2023-02-27T00:12:41.563Z,16.42
2023-02-27T00:15:14.653Z,15.63
2023-02-27T00:17:41.813Z,22.75
2023-02-27T00:20:11.859Z,14.15
2023-02-27T00:22:40.126Z,22.52
2023-02-27T00:25:08.181Z,15.85
2023-02-27T00:27:35.733Z,19.38
2023-02-27T00:30:05.018Z,20.17
2023-02-27T00:32:32.624Z,14.88
2023-02-27T00:34:59.736Z,16.30
2023-02-27T00:37:26.728Z,15.88
2023-02-27T00:39:53.679Z,21.92
2023-02-27T00:42:20.685Z,15.07
2023-02-27T00:44:47.667Z,30.15
2023-02-27T00:47:14.703Z,17.27
2023-02-27T00:49:41.697Z,16.88
2023-02-27T00:52:09.756Z,13.10
2023-02-27T00:54:36.681Z,15.05
2023-02-27T00:57:03.816Z,14.55
2023-02-27T00:59:30.710Z,17.35
2023-02-27T01:01:57.729Z,8.77
2023-02-27T01:04:28.320Z,15.50
2023-02-27T01:06:55.250Z,11.52
2023-02-27T01:09:22.317Z,22.52
2023-02-27T01:11:52.841Z,15.38
2023-02-27T01:14:20.024Z,20.17
2023-02-27T01:16:47.083Z,18.58
2023-02-27T01:19:15.902Z,24.50
2023-02-27T01:21:43.678Z,15.55
2023-02-27T01:24:10.947Z,16.20
2023-02-27T01:26:37.909Z,26.80
2023-02-27T01:29:06.507Z,16.63
2023-02-27T01:31:34.088Z,15.00
2023-02-27T01:34:00.961Z,9.60
2023-02-27T01:36:28.061Z,23.20
2023-02-27T01:38:54.939Z,13.18
2023-02-27T01:41:21.810Z,15.50
2023-02-27T01:43:59.291Z,14.00
2023-02-27T01:46:27.132Z,16.27
2023-02-27T01:48:59.799Z,14.38
2023-02-27T01:51:32.011Z,19.83
2023-02-27T01:54:03.994Z,15.90
2023-02-27T01:56:32.195Z,26.77
2023-02-27T01:59:06.381Z,21.35
2023-02-27T02:01:34.728Z,15.80
2023-02-27T02:04:13.348Z,15.40
2023-02-27T02:06:45.185Z,19.40
2023-02-27T02:09:16.202Z,15.07
2023-02-27T02:11:45.040Z,16.17
2023-02-27T02:14:12.551Z,16.10
2023-02-27T02:16:39.909Z,10.93
2023-02-27T02:19:09.720Z,13.68
2023-02-27T02:22:04.766Z,20.70
2023-02-27T02:24:54.560Z,21.10
2023-02-27T02:27:58.897Z,17.98
2023-02-27T02:30:45.261Z,17.50
2023-02-27T02:33:27.180Z,12.95
2023-02-27T02:36:21.024Z,22.65
2023-02-27T02:39:07.600Z,17.40
2023-02-27T02:41:51.824Z,11.57
2023-02-27T02:44:47.260Z,16.48
2023-02-27T02:47:20.275Z,21.63
2023-02-27T02:49:58.166Z,23.50
2023-02-27T02:53:08.264Z,17.67
2023-02-27T02:56:07.351Z,18.27
2023-02-27T02:58:38.583Z,21.15
2023-02-27T03:01:30.749Z,21.58
2023-02-27T03:04:09.087Z,17.63
2023-02-27T03:06:48.411Z,13.93
2023-02-27T03:09:23.884Z,15.63
2023-02-27T03:11:54.099Z,15.95
2023-02-27T03:14:42.953Z,15.70
2023-02-27T03:17:16.961Z,21.80
2023-02-27T03:19:56.596Z,13.85
2023-02-27T03:22:38.901Z,14.88
2023-02-27T03:25:09.728Z,11.70
2023-02-27T03:27:50.062Z,18.40
2023-02-27T03:30:24.356Z,14.75
2023-02-27T03:32:54.266Z,23.42
2023-02-27T03:35:21.480Z,17.67
2023-02-27T03:38:11.949Z,18.70
2023-02-27T03:40:53.570Z,16.00
2023-02-27T03:43:45.078Z,17.58
2023-02-27T03:46:27.882Z,15.27
2023-02-27T03:48:55.197Z,20.73
2023-02-27T03:51:24.671Z,19.20
2023-02-27T03:54:22.822Z,15.65
2023-02-27T03:57:05.343Z,8.00
2023-02-27T03:59:33.708Z,14.63
2023-02-27T04:02:03.185Z,20.27
2023-02-27T04:04:32.958Z,16.30
2023-02-27T04:07:34.087Z,18.55
2023-02-27T04:10:04.324Z,15.73
2023-02-27T04:12:56.183Z,17.00
2023-02-27T04:15:50.107Z,17.55
2023-02-27T04:18:35.050Z,26.20
2023-02-27T04:21:33.911Z,25.00
2023-02-27T04:24:03.518Z,12.00
2023-02-27T04:26:32.062Z,13.20
2023-02-27T04:29:04.698Z,12.68
2023-02-27T04:31:47.884Z,19.13
2023-02-27T04:34:21.086Z,11.68
2023-02-27T04:36:54.364Z,15.15
2023-02-27T04:40:02.795Z,13.25
2023-02-27T04:42:33.356Z,17.15
2023-02-27T04:45:05.673Z,18.63
2023-02-27T04:47:43.706Z,9.90
2023-02-27T04:50:31.566Z,13.57
2023-02-27T04:53:05.721Z,18.33
2023-02-27T04:55:43.650Z,20.20
2023-02-27T04:58:29.677Z,15.63
2023-02-27T05:01:08.905Z,22.10
2023-02-27T05:03:41.385Z,21.17
2023-02-27T05:06:10.595Z,18.95
2023-02-27T05:09:01.350Z,17.92
2023-02-27T05:11:53.581Z,16.17
2023-02-27T05:14:31.912Z,27.30
2023-02-27T05:17:11.931Z,12.93
2023-02-27T05:19:41.789Z,20.80
2023-02-27T05:22:27.269Z,17.25
2023-02-27T05:27:30.266Z,16.50
2023-02-27T05:30:04.912Z,14.60
2023-02-27T05:32:48.538Z,16.10
2023-02-27T05:35:43.124Z,19.08
2023-02-27T05:38:22.025Z,14.48
2023-02-27T05:40:53.972Z,10.63
2023-02-27T05:43:27.630Z,17.02
2023-02-27T05:46:01.487Z,17.85
2023-02-27T05:48:35.801Z,24.17
2023-02-27T05:51:05.335Z,22.53
2023-02-27T05:53:37.259Z,21.80
2023-02-27T05:56:07.054Z,15.30
2023-02-27T05:58:45.941Z,15.68
2023-02-27T06:01:12.997Z,18.02
2023-02-27T06:03:41.721Z,23.13
2023-02-27T06:06:14.038Z,19.67
2023-02-27T06:08:41.097Z,13.95
2023-02-27T06:11:08.069Z,17.48
2023-02-27T06:13:36.367Z,11.20
2023-02-27T06:16:03.354Z,19.73
2023-02-27T06:18:30.252Z,23.90
2023-02-27T06:20:57.618Z,14.88
2023-02-27T06:23:24.543Z,14.80
2023-02-27T06:25:51.469Z,27.92
2023-02-27T06:28:18.362Z,18.77
2023-02-27T06:30:46.450Z,42.97
2023-02-27T06:33:13.870Z,28.70
2023-02-27T06:35:40.833Z,27.13
2023-02-27T06:38:07.759Z,26.30
2023-02-27T06:40:34.601Z,15.55
2023-02-27T06:43:01.617Z,25.70
2023-02-27T06:45:28.522Z,19.42
2023-02-27T06:47:55.419Z,19.60
2023-02-27T06:50:22.338Z,15.18
2023-02-27T06:52:49.255Z,21.45
2023-02-27T06:55:20.538Z,23.23
2023-02-27T06:57:47.840Z,24.08
2023-02-27T07:00:15.871Z,22.88
2023-02-27T07:02:42.769Z,22.88
2023-02-27T07:05:11.823Z,19.83
2023-02-27T07:07:39.327Z,23.45
2023-02-27T07:10:11.713Z,19.95
2023-02-27T07:12:39.975Z,20.90
2023-02-27T07:15:08.627Z,20.02
2023-02-27T07:17:36.688Z,28.85
2023-02-27T07:20:06.693Z,31.13
2023-02-27T07:22:33.755Z,24.00
2023-02-27T07:25:00.620Z,29.63
2023-02-27T07:27:27.533Z,22.88
2023-02-27T07:29:54.470Z,29.35
2023-02-27T07:32:21.643Z,19.27
2023-02-27T07:34:48.680Z,25.45
2023-02-27T07:37:15.733Z,32.05
2023-02-27T07:39:42.644Z,27.83
2023-02-27T07:42:09.499Z,31.67
2023-02-27T07:44:36.644Z,20.95
2023-02-27T07:47:03.886Z,24.02
2023-02-27T07:49:30.760Z,28.25
2023-02-27T07:51:57.655Z,22.02
2023-02-27T07:54:24.585Z,28.48
2023-02-27T07:56:51.484Z,40.40
2023-02-27T07:59:18.402Z,41.83
2023-02-27T08:01:45.341Z,37.25
2023-02-27T08:04:12.257Z,50.38
2023-02-27T08:06:40.110Z,33.83
2023-02-27T08:09:06.989Z,39.80
2023-02-27T08:11:33.925Z,38.85
2023-02-27T08:14:02.012Z,39.33
2023-02-27T08:16:30.868Z,38.10
2023-02-27T08:18:58.331Z,28.63
2023-02-27T08:21:25.661Z,32.00
2023-02-27T08:23:52.845Z,35.13
2023-02-27T08:26:19.718Z,37.47
2023-02-27T08:28:46.613Z,34.58
2023-02-27T08:31:13.832Z,30.13
2023-02-27T08:33:40.925Z,29.05
2023-02-27T08:36:08.379Z,32.28
2023-02-27T08:38:35.338Z,23.50
2023-02-27T08:41:03.608Z,23.13
2023-02-27T08:43:30.537Z,25.27
2023-02-27T08:45:57.517Z,17.38
2023-02-27T08:48:25.045Z,16.45
2023-02-27T08:50:52.492Z,12.27
2023-02-27T08:53:19.408Z,13.95
2023-02-27T08:55:50.620Z,21.88
2023-02-27T08:58:18.656Z,17.80
2023-02-27T09:00:46.588Z,22.98
2023-02-27T09:03:13.930Z,14.63
2023-02-27T09:05:42.104Z,16.70
2023-02-27T09:08:09.677Z,6.75
2023-02-27T09:10:36.835Z,6.43
2023-02-27T09:13:03.821Z,8.52
2023-02-27T09:15:32.666Z,7.32
2023-02-27T09:18:03.224Z,6.05
2023-02-27T09:20:31.890Z,11.40
2023-02-27T09:22:59.976Z,15.00
2023-02-27T09:25:27.394Z,13.40
2023-02-27T09:27:54.960Z,12.73
2023-02-27T09:30:22.631Z,19.08
2023-02-27T09:32:50.224Z,10.38
2023-02-27T09:35:17.506Z,3.67
2023-02-27T09:37:44.575Z,7.90
2023-02-27T09:40:19.973Z,10.20
2023-02-27T09:42:48.803Z,11.00
2023-02-27T09:45:24.290Z,9.00
2023-02-27T09:48:00.759Z,7.60
2023-02-27T09:50:37.946Z,12.23
2023-02-27T09:53:10.345Z,13.82
2023-02-27T09:55:40.661Z,18.73
2023-02-27T09:58:25.801Z,6.78
2023-02-27T10:00:52.688Z,12.32
2023-02-27T10:03:22.301Z,19.30
2023-02-27T10:06:16.733Z,18.88
2023-02-27T10:09:01.154Z,13.93
2023-02-27T10:11:52.893Z,16.88
2023-02-27T10:14:51.039Z,8.02
2023-02-27T10:17:31.879Z,14.25
2023-02-27T10:20:02.678Z,11.13
2023-02-27T10:22:37.903Z,14.35
2023-02-27T10:25:28.707Z,8.45
2023-02-27T10:28:09.341Z,8.35
2023-02-27T10:30:36.761Z,9.27
2023-02-27T10:33:28.307Z,15.05
2023-02-27T10:35:55.645Z,9.50
2023-02-27T10:38:32.104Z,7.30
2023-02-27T10:41:00.493Z,8.02
2023-02-27T10:43:27.556Z,12.52
2023-02-27T10:45:54.780Z,10.80
2023-02-27T10:48:23.230Z,9.05
2023-02-27T10:50:53.609Z,7.45
2023-02-27T10:53:26.147Z,13.52
2023-02-27T10:56:03.195Z,9.73
2023-02-27T10:58:34.858Z,5.93
2023-02-27T11:01:08.372Z,13.70
2023-02-27T11:03:44.246Z,10.38
2023-02-27T11:06:24.748Z,11.40
2023-02-27T11:09:23.637Z,14.32
2023-02-27T11:11:51.515Z,8.07
2023-02-27T11:14:29.421Z,9.43
2023-02-27T11:16:59.396Z,11.23
2023-02-27T11:19:37.770Z,7.95
2023-02-27T11:22:15.927Z,4.25
2023-02-27T11:24:43.413Z,4.53
2023-02-27T11:27:29.304Z,13.93
2023-02-27T11:30:04.859Z,5.97
2023-02-27T11:32:45.419Z,8.50
2023-02-27T11:35:31.681Z,5.13
2023-02-27T11:38:16.893Z,12.23
2023-02-27T11:40:52.218Z,10.60
2023-02-27T11:43:31.215Z,10.38
2023-02-27T11:46:11.378Z,6.15
2023-02-27T11:49:01.461Z,3.95
2023-02-27T11:51:31.133Z,8.50
2023-02-27T11:54:07.494Z,5.13
2023-02-27T11:56:39.077Z,7.05
2023-02-27T11:59:22.124Z,7.13
2023-02-27T12:01:48.964Z,5.60
2023-02-27T12:04:29.757Z,11.52
2023-02-27T12:07:06.280Z,9.95
2023-02-27T12:09:39.959Z,8.10
2023-02-27T12:12:28.413Z,8.85
2023-02-27T12:15:13.359Z,10.70
2023-02-27T12:17:52.446Z,6.63
2023-02-27T12:20:28.033Z,8.20
2023-02-27T12:22:56.013Z,8.98
2023-02-27T12:25:46.526Z,12.75
2023-02-27T12:28:23.950Z,7.57
2023-02-27T12:31:14.090Z,6.28
2023-02-27T12:33:48.681Z,12.88
2023-02-27T12:36:15.934Z,5.07
2023-02-27T12:38:42.962Z,5.88
2023-02-27T12:41:54.608Z,8.05
2023-02-27T12:44:58.894Z,9.00
2023-02-27T12:47:55.002Z,23.02
2023-02-27T12:50:24.599Z,24.55
2023-02-27T12:53:23.731Z,6.18
2023-02-27T12:55:58.090Z,6.70
2023-02-27T12:58:54.612Z,10.68
2023-02-27T13:01:39.543Z,6.88
2023-02-27T13:04:26.438Z,14.82
2023-02-27T13:07:09.642Z,8.00
2023-02-27T13:09:47.774Z,6.07
2023-02-27T13:12:33.718Z,12.15
2023-02-27T13:15:06.377Z,9.38
2023-02-27T13:17:49.535Z,7.22
2023-02-27T13:20:22.377Z,8.30
2023-02-27T13:23:01.078Z,6.57
2023-02-27T13:25:30.350Z,5.53
2023-02-27T13:28:08.337Z,5.05
2023-02-27T13:31:00.962Z,7.95
2023-02-27T13:33:41.929Z,7.63
2023-02-27T13:36:30.271Z,9.73
2023-02-27T13:38:57.687Z,5.03
2023-02-27T13:41:24.483Z,5.93
2023-02-27T13:43:53.980Z,7.57
2023-02-27T13:46:29.020Z,5.43
2023-02-27T13:51:59.521Z,8.82
2023-02-27T13:54:33.551Z,4.80
2023-02-27T13:57:26.358Z,9.35
2023-02-27T13:59:56.632Z,6.45
2023-02-27T14:02:34.843Z,4.95
2023-02-27T14:05:06.279Z,6.97
2023-02-27T14:07:55.355Z,5.80
2023-02-27T14:10:29.118Z,5.85
2023-02-27T14:12:57.797Z,6.10
2023-02-27T14:15:24.608Z,7.07
2023-02-27T14:18:11.421Z,5.93
2023-02-27T14:20:40.912Z,8.02
2023-02-27T14:23:25.943Z,6.55
2023-02-27T14:26:14.263Z,7.85
2023-02-27T14:28:51.811Z,6.65
2023-02-27T14:31:30.896Z,9.48
2023-02-27T14:34:05.241Z,9.75
2023-02-27T14:36:39.685Z,8.87
2023-02-27T14:39:06.763Z,6.95
2023-02-27T14:41:51.653Z,6.43
2023-02-27T14:44:20.222Z,8.52
2023-02-27T14:46:47.166Z,12.00
2023-02-27T14:49:17.054Z,11.13
2023-02-27T14:51:44.223Z,9.23
2023-02-27T14:54:16.988Z,11.98
2023-02-27T14:57:18.092Z,8.43
2023-02-27T14:59:53.065Z,7.63
2023-02-27T15:02:36.216Z,9.55
2023-02-27T15:05:03.427Z,13.65
2023-02-27T15:07:33.925Z,10.68
2023-02-27T15:10:04.528Z,11.52
2023-02-27T15:12:37.241Z,9.27
2023-02-27T15:15:06.323Z,10.13
2023-02-27T15:17:46.268Z,13.55
2023-02-27T15:20:34.625Z,14.23
2023-02-27T15:23:20.051Z,15.43
2023-02-27T15:25:47.063Z,11.32
2023-02-27T15:28:22.329Z,15.13
2023-02-27T15:33:26.552Z,18.73
2023-02-27T15:35:53.730Z,18.63
2023-02-27T15:38:32.577Z,12.52
2023-02-27T15:41:02.116Z,16.30
2023-02-27T15:43:30.028Z,19.85
2023-02-27T15:45:58.449Z,21.02
2023-02-27T15:48:26.167Z,22.50
2023-02-27T15:51:04.419Z,23.05
2023-02-27T15:53:34.113Z,15.57
2023-02-27T15:56:06.187Z,20.73
2023-02-27T15:58:38.952Z,16.48
2023-02-27T16:01:11.632Z,21.85
2023-02-27T16:03:44.103Z,24.10
2023-02-27T16:06:20.498Z,16.67
2023-02-27T16:09:00.417Z,18.67
2023-02-27T16:11:33.385Z,22.52
2023-02-27T16:14:00.853Z,22.30
2023-02-27T16:16:37.572Z,20.65
2023-02-27T16:19:27.997Z,28.50
2023-02-27T16:22:27.697Z,22.00
2023-02-27T16:24:56.225Z,19.98
2023-02-27T16:27:29.630Z,26.13
2023-02-27T16:30:02.982Z,21.60
2023-02-27T16:32:39.449Z,28.80
2023-02-27T16:35:15.547Z,25.90
2023-02-27T16:37:43.577Z,25.50
2023-02-27T16:40:17.486Z,24.92
2023-02-27T16:42:45.528Z,29.10
2023-02-27T16:45:20.143Z,28.80
2023-02-27T16:47:56.379Z,20.58
2023-02-27T16:50:34.087Z,21.80
2023-02-27T16:53:01.142Z,17.33
2023-02-27T16:55:28.352Z,21.38
2023-02-27T16:57:56.060Z,18.23
2023-02-27T17:00:23.320Z,22.48
2023-02-27T17:02:51.273Z,18.88
2023-02-27T17:05:19.484Z,19.85
2023-02-27T17:07:46.705Z,19.73
2023-02-27T17:10:19.255Z,18.00
2023-02-27T17:12:48.007Z,16.95
2023-02-27T17:15:16.113Z,20.13
2023-02-27T17:17:43.906Z,20.67
2023-02-27T17:20:13.974Z,19.85
2023-02-27T17:22:44.988Z,27.15
2023-02-27T17:25:14.182Z,22.55
2023-02-27T17:27:43.798Z,18.00
2023-02-27T17:30:11.469Z,21.02
2023-02-27T17:32:38.462Z,18.10
2023-02-27T17:35:05.755Z,25.27
2023-02-27T17:37:32.645Z,23.60
2023-02-27T17:39:59.632Z,18.52
2023-02-27T17:42:26.625Z,22.15
2023-02-27T17:44:53.556Z,21.38
2023-02-27T17:47:20.548Z,20.17
2023-02-27T17:49:47.608Z,21.63
2023-02-27T17:52:14.646Z,19.65
2023-02-27T17:54:41.588Z,27.70
2023-02-27T17:57:10.494Z,20.65
2023-02-27T17:59:37.625Z,21.65
2023-02-27T18:02:04.658Z,26.23
2023-02-27T18:04:31.616Z,20.83
2023-02-27T18:06:58.896Z,23.52
2023-02-27T18:09:25.835Z,23.80
2023-02-27T18:11:52.775Z,20.02
2023-02-27T18:14:19.645Z,26.90
2023-02-27T18:16:46.834Z,22.42
2023-02-27T18:19:14.636Z,25.48
2023-02-27T18:21:42.930Z,23.77
2023-02-27T18:24:10.246Z,24.35
2023-02-27T18:26:37.778Z,22.13
2023-02-27T18:29:10.514Z,24.70
2023-02-27T18:31:43.395Z,23.88
2023-02-27T18:34:12.028Z,23.95
2023-02-27T18:36:39.088Z,22.52
2023-02-27T18:39:06.564Z,23.88
2023-02-27T18:41:34.633Z,24.73
2023-02-27T18:44:01.624Z,27.00
2023-02-27T18:46:29.561Z,24.33
2023-02-27T18:48:56.967Z,23.70
2023-02-27T18:51:24.830Z,20.13
2023-02-27T18:53:53.096Z,22.08
2023-02-27T18:56:23.255Z,21.95
2023-02-27T18:58:51.370Z,19.17
2023-02-27T19:01:23.867Z,21.88
2023-02-27T19:03:51.694Z,19.98
2023-02-27T19:06:18.619Z,22.13
2023-02-27T19:08:46.422Z,18.63
2023-02-27T19:11:33.753Z,20.98
2023-02-27T19:14:02.572Z,18.55
2023-02-27T19:16:30.032Z,18.80
2023-02-27T19:18:58.728Z,15.13
2023-02-27T19:21:26.796Z,19.85
2023-02-27T19:23:54.240Z,15.07
2023-02-27T19:26:21.788Z,15.35
2023-02-27T19:28:54.082Z,18.02
2023-02-27T19:31:23.621Z,17.00
2023-02-27T19:33:50.968Z,17.60
2023-02-27T19:36:21.053Z,16.70
2023-02-27T19:38:48.666Z,18.60
2023-02-27T19:41:17.027Z,17.42
2023-02-27T19:43:44.423Z,14.68
2023-02-27T19:46:14.276Z,15.25
2023-02-27T19:48:41.504Z,17.40
2023-02-27T19:51:11.231Z,16.50
2023-02-27T19:53:39.801Z,15.90
2023-02-27T19:56:09.159Z,16.70
2023-02-27T19:58:36.647Z,16.27
2023-02-27T20:01:04.996Z,16.35
2023-02-27T20:03:33.504Z,16.30
2023-02-27T20:06:00.435Z,17.45
2023-02-27T20:08:27.386Z,14.75
2023-02-27T20:10:58.716Z,14.60
2023-02-27T20:13:26.858Z,14.88
2023-02-27T20:16:03.257Z,16.50
2023-02-27T20:18:31.239Z,18.40
2023-02-27T20:21:01.956Z,16.30
2023-02-27T20:23:30.038Z,18.70
2023-02-27T20:25:57.055Z,15.80
2023-02-27T20:28:23.975Z,14.88
2023-02-27T20:30:50.836Z,16.40
2023-02-27T20:33:17.717Z,12.45
2023-02-27T20:35:44.797Z,13.50
2023-02-27T20:38:11.804Z,13.90
2023-02-27T20:40:38.810Z,15.05
2023-02-27T20:43:05.683Z,9.75
2023-02-27T20:45:32.551Z,13.48
2023-02-27T20:47:59.414Z,11.05
2023-02-27T20:50:26.305Z,10.30
2023-02-27T20:52:54.629Z,11.45
2023-02-27T20:55:22.697Z,9.65
2023-02-27T20:57:49.554Z,9.30
2023-02-27T21:00:16.741Z,8.23
2023-02-27T21:02:44.681Z,7.57
2023-02-27T21:05:11.599Z,6.45
2023-02-27T21:07:38.519Z,8.88
2023-02-27T21:10:05.870Z,11.85
2023-02-27T21:12:34.124Z,5.60
2023-02-27T21:15:01.026Z,12.10
2023-02-27T21:17:27.967Z,6.82
2023-02-27T21:19:54.900Z,8.15
2023-02-27T21:22:21.983Z,7.13
2023-02-27T21:24:52.014Z,8.40
2023-02-27T21:27:21.396Z,7.93
2023-02-27T21:29:49.082Z,7.75
2023-02-27T21:32:16.054Z,6.63
2023-02-27T21:34:42.980Z,5.32
2023-02-27T21:37:12.454Z,5.63
2023-02-27T21:39:40.468Z,4.93
2023-02-27T21:42:07.652Z,4.97
2023-02-27T21:44:34.550Z,7.40
2023-02-27T21:47:10.016Z,4.85
2023-02-27T21:49:37.385Z,4.63
2023-02-27T21:52:04.475Z,4.65
2023-02-27T21:54:31.544Z,5.63
2023-02-27T21:57:01.870Z,4.45
2023-02-27T21:59:29.605Z,4.97
2023-02-27T22:01:57.954Z,7.93
2023-02-27T22:04:25.436Z,6.70
2023-02-27T22:06:52.789Z,6.63
2023-02-27T22:09:20.415Z,3.83
2023-02-27T22:11:48.112Z,6.63
2023-02-27T22:14:15.300Z,3.50
2023-02-27T22:16:42.679Z,5.50
2023-02-27T22:19:12.922Z,5.57
2023-02-27T22:21:40.851Z,4.20
2023-02-27T22:24:08.061Z,4.07
2023-02-27T22:26:35.895Z,5.10
2023-02-27T22:29:03.901Z,4.68
2023-02-27T22:31:34.468Z,5.13
2023-02-27T22:34:05.955Z,5.82
2023-02-27T22:36:34.329Z,4.32
2023-02-27T22:39:02.041Z,7.45
2023-02-27T22:41:34.590Z,4.45
2023-02-27T22:44:02.281Z,3.78
2023-02-27T22:46:34.967Z,3.70
2023-02-27T22:49:08.461Z,4.32
2023-02-27T22:51:35.586Z,3.75
2023-02-27T22:54:04.159Z,5.68
2023-02-27T22:56:31.819Z,8.30
2023-02-27T22:58:58.858Z,3.78
2023-02-27T23:01:31.589Z,4.40
2023-02-27T23:04:01.088Z,5.28
2023-02-27T23:06:31.084Z,4.00
2023-02-27T23:08:58.434Z,4.55
2023-02-27T23:11:25.456Z,4.93
2023-02-27T23:13:52.704Z,5.45
2023-02-27T23:16:20.331Z,5.07
2023-02-27T23:18:50.313Z,4.18
2023-02-27T23:21:20.306Z,6.07
2023-02-27T23:23:47.931Z,9.98
2023-02-27T23:26:15.293Z,3.88
2023-02-27T23:28:42.926Z,5.07
2023-02-27T23:31:10.081Z,3.78
2023-02-27T23:33:37.062Z,4.50
2023-02-27T23:36:04.503Z,3.72
2023-02-27T23:38:31.436Z,6.00
2023-02-27T23:40:58.599Z,3.72
2023-02-27T23:43:43.983Z,4.70
2023-02-27T23:46:16.450Z,3.90
2023-02-27T23:48:43.705Z,5.70
2023-02-27T23:51:11.642Z,3.60
2023-02-27T23:53:40.432Z,3.95
2023-02-27T23:56:20.378Z,4.45
2023-02-27T23:58:49.039Z,4.13
